createdAt,value
2022-10-13T00:00:09.491Z,23.10
2022-10-13T00:02:38.747Z,23.10
2022-10-13T00:05:08.279Z,23.10
2022-10-13T00:07:37.496Z,23.10
2022-10-13T00:10:07.278Z,23.20
2022-10-13T00:12:40.265Z,23.20
2022-10-13T00:15:10.661Z,23.30
2022-10-13T00:17:40.341Z,23.40
2022-10-13T00:20:11.084Z,23.40
2022-10-13T00:22:40.500Z,23.40
2022-10-13T00:25:10.044Z,23.40
2022-10-13T00:27:39.233Z,23.50
2022-10-13T00:30:08.991Z,23.50
2022-10-13T00:32:38.331Z,23.60
2022-10-13T00:35:07.932Z,23.60
2022-10-13T00:37:37.158Z,23.60
2022-10-13T00:40:06.783Z,23.60
2022-10-13T00:42:36.057Z,23.60
2022-10-13T00:45:24.456Z,23.70
2022-10-13T00:48:00.411Z,23.70
2022-10-13T00:50:35.486Z,23.70
2022-10-13T00:53:07.094Z,23.70
2022-10-13T00:55:39.719Z,23.70
2022-10-13T00:58:12.161Z,23.70
2022-10-13T01:00:41.534Z,23.70
2022-10-13T01:03:11.443Z,23.80
2022-10-13T01:05:42.396Z,23.80
2022-10-13T01:08:12.735Z,23.90
2022-10-13T01:11:07.441Z,23.90
2022-10-13T01:13:52.132Z,23.90
2022-10-13T01:16:42.357Z,23.90
2022-10-13T01:19:31.639Z,24.00
2022-10-13T01:22:30.665Z,24.00
2022-10-13T01:25:21.723Z,24.00
2022-10-13T01:28:11.018Z,24.10
2022-10-13T01:30:51.324Z,24.10
2022-10-13T01:33:22.439Z,24.20
2022-10-13T01:36:19.187Z,24.30
2022-10-13T01:38:52.968Z,24.30
2022-10-13T01:41:29.450Z,24.40
2022-10-13T01:44:04.156Z,24.40
2022-10-13T01:46:36.928Z,24.50
2022-10-13T01:49:12.789Z,24.50
2022-10-13T01:51:43.969Z,24.50
2022-10-13T01:54:13.455Z,24.50
2022-10-13T01:56:42.835Z,24.50
2022-10-13T01:59:16.325Z,24.50
2022-10-13T02:01:52.687Z,24.60
2022-10-13T02:04:58.684Z,24.60
2022-10-13T02:07:50.763Z,24.70
2022-10-13T02:10:24.108Z,24.70
2022-10-13T02:12:59.307Z,24.80
2022-10-13T02:15:35.589Z,24.80
2022-10-13T02:18:06.515Z,24.90
2022-10-13T02:20:37.446Z,24.90
2022-10-13T02:23:13.397Z,24.90
2022-10-13T02:25:43.573Z,24.90
2022-10-13T02:28:14.599Z,25.00
2022-10-13T02:30:45.001Z,25.10
2022-10-13T02:33:15.884Z,25.10
2022-10-13T02:35:46.036Z,25.20
2022-10-13T02:38:15.354Z,25.20
2022-10-13T02:40:44.601Z,25.20
2022-10-13T02:43:14.286Z,25.30
2022-10-13T02:45:44.706Z,25.30
2022-10-13T02:48:16.218Z,25.30
2022-10-13T02:50:45.475Z,25.30
2022-10-13T02:53:14.702Z,25.30
2022-10-13T02:55:43.950Z,25.40
2022-10-13T02:58:13.224Z,25.40
2022-10-13T03:00:42.476Z,25.50
2022-10-13T03:03:13.578Z,25.50
2022-10-13T03:05:42.734Z,25.60
2022-10-13T03:08:12.065Z,25.60
2022-10-13T03:10:41.434Z,25.60
2022-10-13T03:13:11.015Z,25.60
2022-10-13T03:16:39.053Z,25.70
2022-10-13T03:19:09.837Z,25.60
2022-10-13T03:21:41.314Z,25.70
2022-10-13T03:24:11.180Z,25.70
2022-10-13T03:26:41.423Z,25.80
2022-10-13T03:29:16.312Z,25.80
2022-10-13T03:31:47.578Z,25.80
2022-10-13T03:34:18.695Z,25.80
2022-10-13T03:36:48.697Z,25.90
2022-10-13T03:39:18.721Z,26.00
2022-10-13T03:41:48.955Z,26.00
2022-10-13T03:44:19.635Z,26.10
2022-10-13T03:46:49.725Z,26.20
2022-10-13T03:49:20.480Z,26.20
2022-10-13T03:51:50.890Z,26.20
2022-10-13T03:54:20.965Z,26.30
2022-10-13T03:56:51.021Z,26.30
2022-10-13T03:59:21.020Z,26.40
2022-10-13T04:01:51.073Z,26.40
2022-10-13T04:04:21.186Z,26.40
2022-10-13T04:06:51.508Z,26.50
2022-10-13T04:09:21.464Z,26.50
2022-10-13T04:11:54.306Z,26.50
2022-10-13T04:14:24.405Z,26.60
2022-10-13T04:16:54.570Z,26.60
2022-10-13T04:19:24.641Z,26.60
2022-10-13T04:21:54.576Z,26.70
2022-10-13T04:24:24.581Z,26.70
2022-10-13T04:26:54.663Z,26.80
2022-10-13T04:29:25.978Z,26.80
2022-10-13T04:31:55.984Z,26.90
2022-10-13T04:34:26.028Z,26.90
2022-10-13T04:36:55.558Z,26.90
2022-10-13T04:39:25.077Z,26.90
2022-10-13T04:41:54.796Z,27.00
2022-10-13T04:44:24.177Z,27.00
2022-10-13T04:46:53.550Z,27.00
2022-10-13T04:49:22.908Z,27.00
2022-10-13T04:51:52.253Z,27.00
2022-10-13T04:54:21.906Z,27.00
2022-10-13T04:56:51.242Z,27.10
2022-10-13T04:59:20.499Z,27.10
2022-10-13T05:01:49.847Z,27.10
2022-10-13T05:04:19.191Z,27.10
2022-10-13T05:07:16.027Z,27.20
2022-10-13T05:09:39.605Z,27.20
2022-10-13T05:12:09.066Z,27.30
2022-10-13T05:14:38.649Z,27.30
2022-10-13T05:17:07.921Z,27.40
2022-10-13T05:19:37.240Z,27.40
2022-10-13T05:22:06.583Z,27.50
2022-10-13T05:24:39.176Z,27.50
2022-10-13T05:27:13.505Z,27.50
2022-10-13T05:29:43.213Z,27.60
2022-10-13T05:32:12.469Z,27.60
2022-10-13T05:34:41.718Z,27.60
2022-10-13T05:37:11.040Z,27.70
2022-10-13T05:39:40.232Z,27.70
2022-10-13T05:42:09.494Z,27.70
2022-10-13T05:44:40.356Z,27.70
2022-10-13T05:47:09.559Z,27.70
2022-10-13T05:49:41.129Z,27.70
2022-10-13T05:52:13.498Z,27.70
2022-10-13T05:54:48.273Z,27.70
2022-10-13T05:57:27.648Z,27.70
2022-10-13T06:00:04.150Z,27.80
2022-10-13T06:02:40.270Z,27.80
2022-10-13T06:05:16.292Z,27.90
2022-10-13T06:07:46.814Z,27.90
2022-10-13T06:10:18.257Z,27.90
2022-10-13T06:12:48.416Z,27.80
2022-10-13T06:15:17.730Z,27.90
2022-10-13T06:17:47.018Z,27.90
2022-10-13T06:20:16.178Z,27.90
2022-10-13T06:22:45.384Z,28.00
2022-10-13T06:25:14.549Z,28.00
2022-10-13T06:27:43.927Z,28.10
2022-10-13T06:30:13.390Z,28.10
2022-10-13T06:32:42.572Z,28.20
2022-10-13T06:35:11.925Z,28.20
2022-10-13T06:37:41.117Z,28.10
2022-10-13T06:40:10.822Z,28.10
2022-10-13T06:42:40.197Z,28.20
2022-10-13T06:45:10.107Z,28.20
2022-10-13T06:47:39.309Z,28.20
2022-10-13T06:50:08.919Z,28.30
2022-10-13T06:52:38.175Z,28.30
2022-10-13T06:55:10.443Z,28.30
2022-10-13T06:57:39.846Z,28.30
2022-10-13T07:00:11.259Z,28.30
2022-10-13T07:02:40.503Z,28.30
2022-10-13T07:05:10.096Z,28.30
2022-10-13T07:07:39.302Z,28.20
2022-10-13T07:10:08.757Z,28.20
2022-10-13T07:12:38.016Z,28.30
2022-10-13T07:15:07.468Z,28.30
2022-10-13T07:17:37.093Z,28.40
2022-10-13T07:20:07.505Z,28.40
2022-10-13T07:22:36.996Z,28.40
2022-10-13T07:25:06.416Z,28.50
2022-10-13T07:27:35.617Z,28.50
2022-10-13T07:30:05.096Z,28.50
2022-10-13T07:32:34.877Z,28.50
2022-10-13T07:35:05.117Z,28.60
2022-10-13T07:37:34.238Z,28.60
2022-10-13T07:40:03.556Z,28.60
2022-10-13T07:42:32.820Z,28.60
2022-10-13T07:45:02.122Z,28.60
2022-10-13T07:47:31.684Z,28.60
2022-10-13T07:50:00.907Z,28.60
2022-10-13T07:52:30.178Z,28.60
2022-10-13T07:54:59.385Z,28.60
2022-10-13T07:57:29.177Z,28.50
2022-10-13T07:59:58.399Z,28.50
2022-10-13T08:02:27.769Z,28.60
2022-10-13T08:04:56.966Z,28.50
2022-10-13T08:07:26.242Z,28.50
2022-10-13T08:09:55.559Z,28.50
2022-10-13T08:12:41.638Z,28.50
2022-10-13T08:15:13.398Z,28.50
2022-10-13T08:17:42.657Z,28.40
2022-10-13T08:20:12.263Z,28.50
2022-10-13T08:22:41.457Z,28.50
2022-10-13T08:25:13.414Z,28.50
2022-10-13T08:27:51.024Z,28.60
2022-10-13T08:30:21.910Z,28.60
2022-10-13T08:32:52.151Z,28.60
2022-10-13T08:35:21.289Z,28.60
2022-10-13T08:37:50.609Z,28.60
2022-10-13T08:40:25.013Z,28.70
2022-10-13T08:42:59.427Z,28.70
2022-10-13T08:45:42.411Z,28.70
2022-10-13T08:48:20.477Z,28.70
2022-10-13T08:50:57.302Z,28.80
2022-10-13T08:53:34.866Z,28.80
2022-10-13T08:56:26.525Z,28.70
2022-10-13T08:58:58.125Z,28.80
2022-10-13T09:01:32.166Z,28.80
2022-10-13T09:04:39.338Z,28.80
2022-10-13T09:07:22.287Z,28.80
2022-10-13T09:09:53.811Z,28.70
2022-10-13T09:12:26.391Z,28.70
2022-10-13T09:15:07.657Z,28.70
2022-10-13T09:17:38.808Z,28.70
2022-10-13T09:20:26.602Z,28.60
2022-10-13T09:23:04.864Z,28.60
2022-10-13T09:25:54.054Z,28.60
2022-10-13T09:28:29.060Z,28.50
2022-10-13T09:31:20.658Z,28.50
2022-10-13T09:34:16.835Z,28.50
2022-10-13T09:37:07.486Z,28.40
2022-10-13T09:39:36.898Z,28.40
2022-10-13T09:42:27.493Z,28.30
2022-10-13T09:45:17.219Z,28.30
2022-10-13T09:47:57.467Z,28.30
2022-10-13T09:50:33.279Z,28.30
2022-10-13T09:53:23.748Z,28.20
2022-10-13T09:56:12.267Z,28.20
2022-10-13T09:58:51.131Z,28.20
2022-10-13T10:01:25.868Z,28.20
2022-10-13T10:03:56.785Z,28.20
2022-10-13T10:06:27.883Z,28.10
2022-10-13T10:09:07.247Z,28.10
2022-10-13T10:11:38.158Z,28.10
2022-10-13T10:14:27.619Z,28.00
2022-10-13T10:17:32.361Z,28.00
2022-10-13T10:20:03.449Z,27.90
2022-10-13T10:22:45.515Z,27.90
2022-10-13T10:25:43.093Z,27.90
2022-10-13T10:28:20.798Z,27.80
2022-10-13T10:30:58.209Z,27.80
2022-10-13T10:33:55.798Z,27.80
2022-10-13T10:36:36.072Z,27.70
2022-10-13T10:39:22.884Z,27.70
2022-10-13T10:42:02.202Z,27.70
2022-10-13T10:44:35.074Z,27.60
2022-10-13T10:47:09.285Z,27.60
2022-10-13T10:49:41.196Z,27.60
2022-10-13T10:52:21.211Z,27.50
2022-10-13T10:55:13.842Z,27.50
2022-10-13T10:57:54.731Z,27.50
2022-10-13T11:00:25.131Z,27.50
2022-10-13T11:03:00.307Z,27.40
2022-10-13T11:05:53.163Z,27.40
2022-10-13T11:08:45.427Z,27.30
2022-10-13T11:11:34.867Z,27.30
2022-10-13T11:14:07.727Z,27.20
2022-10-13T11:16:41.338Z,27.20
2022-10-13T11:19:11.456Z,27.10
2022-10-13T11:22:00.674Z,27.00
2022-10-13T11:24:40.201Z,26.90
2022-10-13T11:27:12.094Z,26.90
2022-10-13T11:29:53.098Z,26.80
2022-10-13T11:32:46.476Z,26.80
2022-10-13T11:35:27.805Z,26.70
2022-10-13T11:38:08.038Z,26.70
2022-10-13T11:40:57.925Z,26.70
2022-10-13T11:43:28.054Z,26.70
2022-10-13T11:46:17.342Z,26.60
2022-10-13T11:48:56.093Z,26.60
2022-10-13T11:51:51.157Z,26.60
2022-10-13T11:54:22.581Z,26.60
2022-10-13T11:56:55.513Z,26.50
2022-10-13T11:59:27.695Z,26.50
2022-10-13T12:01:59.219Z,26.50
2022-10-13T12:04:30.181Z,26.40
2022-10-13T12:07:04.604Z,26.40
2022-10-13T12:09:35.035Z,26.40
2022-10-13T12:12:19.788Z,26.30
2022-10-13T12:14:52.652Z,26.30
2022-10-13T12:17:29.972Z,26.30
2022-10-13T12:20:02.120Z,26.30
2022-10-13T12:22:33.234Z,26.20
2022-10-13T12:25:07.828Z,26.20
2022-10-13T12:27:49.734Z,26.20
2022-10-13T12:30:28.296Z,26.10
2022-10-13T12:33:04.279Z,26.10
2022-10-13T12:35:35.536Z,26.10
2022-10-13T12:38:09.325Z,26.10
2022-10-13T12:40:38.808Z,26.00
2022-10-13T12:43:08.307Z,26.00
2022-10-13T12:45:38.804Z,26.00
2022-10-13T12:48:08.706Z,25.90
2022-10-13T12:50:39.631Z,26.00
2022-10-13T12:53:10.845Z,25.90
2022-10-13T12:55:51.233Z,25.90
2022-10-13T12:58:26.109Z,25.80
2022-10-13T13:01:16.430Z,25.90
2022-10-13T13:03:46.218Z,25.80
2022-10-13T13:06:17.409Z,25.80
2022-10-13T13:08:46.899Z,25.80
2022-10-13T13:11:34.652Z,25.80
2022-10-13T13:14:36.311Z,25.80
2022-10-13T13:17:10.306Z,25.70
2022-10-13T13:19:40.675Z,25.70
2022-10-13T13:22:10.865Z,25.70
2022-10-13T13:24:40.887Z,25.60
2022-10-13T13:27:36.205Z,25.70
2022-10-13T13:30:05.780Z,25.60
2022-10-13T13:32:35.954Z,25.60
2022-10-13T13:35:06.027Z,25.60
2022-10-13T13:37:49.920Z,25.60
2022-10-13T13:40:23.273Z,25.60
2022-10-13T13:42:53.896Z,25.70
2022-10-13T13:45:26.384Z,25.60
2022-10-13T13:48:00.388Z,25.70
2022-10-13T13:50:37.109Z,25.60
2022-10-13T13:53:07.409Z,25.60
2022-10-13T13:55:37.283Z,25.60
2022-10-13T13:58:06.653Z,25.60
2022-10-13T14:00:35.963Z,25.60
2022-10-13T14:03:07.449Z,25.60
2022-10-13T14:05:40.207Z,25.60
2022-10-13T14:08:09.383Z,25.60
2022-10-13T14:10:42.635Z,25.60
2022-10-13T14:13:12.024Z,25.60
2022-10-13T14:15:41.339Z,25.60
2022-10-13T14:18:10.566Z,25.50
2022-10-13T14:20:43.682Z,25.50
2022-10-13T14:23:13.070Z,25.50
2022-10-13T14:25:42.368Z,25.50
2022-10-13T14:28:14.595Z,25.50
2022-10-13T14:30:47.380Z,25.50
2022-10-13T14:33:20.877Z,25.40
2022-10-13T14:35:50.116Z,25.40
2022-10-13T14:38:19.644Z,25.40
2022-10-13T14:40:49.116Z,25.40
2022-10-13T14:43:18.406Z,25.30
2022-10-13T14:45:47.747Z,25.30
2022-10-13T14:48:18.694Z,25.30
2022-10-13T14:50:50.755Z,25.30
2022-10-13T14:53:20.216Z,25.30
2022-10-13T14:55:50.124Z,25.30
2022-10-13T14:58:19.404Z,25.30
2022-10-13T15:00:48.730Z,25.20
2022-10-13T15:03:18.041Z,25.20
2022-10-13T15:05:47.315Z,25.20
2022-10-13T15:08:16.545Z,25.10
2022-10-13T15:10:46.567Z,25.10
2022-10-13T15:13:15.740Z,25.10
2022-10-13T15:15:49.216Z,25.10
2022-10-13T15:18:18.350Z,25.10
2022-10-13T15:20:48.920Z,25.10
2022-10-13T15:23:18.412Z,25.10
2022-10-13T15:25:57.855Z,25.10
2022-10-13T15:28:30.640Z,25.10
2022-10-13T15:30:59.462Z,25.10
2022-10-13T15:33:29.575Z,25.00
2022-10-13T15:35:58.975Z,25.00
2022-10-13T15:38:28.855Z,25.00
2022-10-13T15:41:02.395Z,25.00
2022-10-13T15:43:31.783Z,25.00
2022-10-13T15:46:04.979Z,25.00
2022-10-13T15:48:34.887Z,24.90
2022-10-13T15:51:04.374Z,24.90
2022-10-13T15:53:33.657Z,24.90
2022-10-13T15:56:04.446Z,24.90
2022-10-13T15:58:33.681Z,24.90
2022-10-13T16:01:02.998Z,24.90
2022-10-13T16:03:32.222Z,24.80
2022-10-13T16:06:05.918Z,24.80
2022-10-13T16:08:38.569Z,24.80
2022-10-13T16:11:12.485Z,24.80
2022-10-13T16:13:41.990Z,24.80
2022-10-13T16:16:11.356Z,24.80
2022-10-13T16:18:41.725Z,24.80
2022-10-13T16:21:18.532Z,24.80
2022-10-13T16:23:49.488Z,24.80
2022-10-13T16:26:19.731Z,24.80
2022-10-13T16:28:49.034Z,24.70
2022-10-13T16:31:19.263Z,24.80
2022-10-13T16:33:48.504Z,24.70
2022-10-13T16:36:20.792Z,24.70
2022-10-13T16:38:50.022Z,24.70
2022-10-13T16:41:20.561Z,24.70
2022-10-13T16:43:50.385Z,24.60
2022-10-13T16:46:21.506Z,24.70
2022-10-13T16:48:50.783Z,24.70
2022-10-13T16:51:22.992Z,24.70
2022-10-13T16:54:01.170Z,24.70
2022-10-13T16:56:33.190Z,24.60
2022-10-13T17:02:00.665Z,24.60
2022-10-13T17:04:30.462Z,24.60
2022-10-13T17:06:59.683Z,24.60
2022-10-13T17:09:29.569Z,24.60
2022-10-13T17:11:58.736Z,24.60
2022-10-13T17:14:27.960Z,24.60
2022-10-13T17:16:58.131Z,24.60
2022-10-13T17:19:28.076Z,24.60
2022-10-13T17:21:57.357Z,24.60
2022-10-13T17:24:26.600Z,24.50
2022-10-13T17:26:55.759Z,24.60
2022-10-13T17:29:24.938Z,24.60
2022-10-13T17:31:54.082Z,24.50
2022-10-13T17:34:23.223Z,24.50
2022-10-13T17:36:52.460Z,24.50
2022-10-13T17:39:21.613Z,24.50
2022-10-13T17:41:50.822Z,24.40
2022-10-13T17:44:22.165Z,24.40
2022-10-13T17:46:51.553Z,24.40
2022-10-13T17:49:23.469Z,24.40
2022-10-13T17:51:54.999Z,24.40
2022-10-13T17:54:24.274Z,24.40
2022-10-13T17:56:56.417Z,24.40
2022-10-13T17:59:25.562Z,24.40
2022-10-13T18:01:54.887Z,24.30
2022-10-13T18:04:24.990Z,24.30
2022-10-13T18:06:55.224Z,24.30
2022-10-13T18:09:25.857Z,24.40
2022-10-13T18:11:56.446Z,24.40
2022-10-13T18:14:26.975Z,24.40
2022-10-13T18:16:56.759Z,24.40
2022-10-13T18:19:25.943Z,24.40
2022-10-13T18:21:55.247Z,24.40
2022-10-13T18:24:26.086Z,24.40
2022-10-13T18:26:55.407Z,24.40
2022-10-13T18:29:24.587Z,24.40
2022-10-13T18:31:57.962Z,24.40
2022-10-13T18:34:27.241Z,24.30
2022-10-13T18:36:57.320Z,24.30
2022-10-13T18:39:28.664Z,24.30
2022-10-13T18:41:59.089Z,24.30
2022-10-13T18:44:28.303Z,24.30
2022-10-13T18:46:58.019Z,24.30
2022-10-13T18:49:32.141Z,24.30
2022-10-13T18:52:03.077Z,24.30
2022-10-13T18:54:33.585Z,24.30
2022-10-13T18:57:02.865Z,24.30
2022-10-13T18:59:32.266Z,24.30
2022-10-13T19:02:01.441Z,24.30
2022-10-13T19:04:30.632Z,24.40
2022-10-13T19:06:59.823Z,24.30
2022-10-13T19:09:29.015Z,24.40
2022-10-13T19:11:58.613Z,24.40
2022-10-13T19:14:28.909Z,24.40
2022-10-13T19:17:01.751Z,24.40
2022-10-13T19:19:31.518Z,24.30
2022-10-13T19:22:00.623Z,24.30
2022-10-13T19:24:29.880Z,24.30
2022-10-13T19:26:59.214Z,24.30
2022-10-13T19:29:28.710Z,24.20
2022-10-13T19:31:58.099Z,24.20
2022-10-13T19:34:27.417Z,24.20
2022-10-13T19:37:00.463Z,24.10
2022-10-13T19:39:29.987Z,24.10
2022-10-13T19:41:59.813Z,24.10
2022-10-13T19:44:29.216Z,24.00
2022-10-13T19:46:58.916Z,23.90
2022-10-13T19:49:28.059Z,23.90
2022-10-13T19:51:57.759Z,23.90
2022-10-13T19:54:31.474Z,23.90
2022-10-13T19:57:03.353Z,23.90
2022-10-13T19:59:32.698Z,23.90
2022-10-13T20:02:01.845Z,23.80
2022-10-13T20:04:31.314Z,23.80
2022-10-13T20:07:00.561Z,23.70
2022-10-13T20:09:30.227Z,23.70
2022-10-13T20:11:59.422Z,23.70
2022-10-13T20:14:28.687Z,23.60
2022-10-13T20:16:59.864Z,23.60
2022-10-13T20:19:29.152Z,23.60
2022-10-13T20:21:58.434Z,23.60
2022-10-13T20:24:27.831Z,23.60
2022-10-13T20:26:57.101Z,23.60
2022-10-13T20:29:26.255Z,23.60
2022-10-13T20:31:55.410Z,23.70
2022-10-13T20:34:24.541Z,23.70
2022-10-13T20:36:53.697Z,23.70
2022-10-13T20:39:22.983Z,23.70
2022-10-13T20:41:52.234Z,23.70
2022-10-13T20:44:21.542Z,23.70
2022-10-13T20:46:50.803Z,23.70
2022-10-13T20:49:20.101Z,23.70
2022-10-13T20:51:49.273Z,23.70
2022-10-13T20:54:18.921Z,23.60
2022-10-13T20:56:48.644Z,23.60
2022-10-13T20:59:17.870Z,23.50
2022-10-13T21:01:47.188Z,23.50
2022-10-13T21:04:16.336Z,23.40
2022-10-13T21:06:45.574Z,23.40
2022-10-13T21:09:15.534Z,23.30
2022-10-13T21:11:44.781Z,23.20
2022-10-13T21:14:13.976Z,23.20
2022-10-13T21:16:43.190Z,23.20
2022-10-13T21:19:12.331Z,23.20
2022-10-13T21:21:41.471Z,23.20
2022-10-13T21:24:12.241Z,23.30
2022-10-13T21:26:42.582Z,23.30
2022-10-13T21:29:11.901Z,23.30
2022-10-13T21:31:41.099Z,23.30
2022-10-13T21:34:11.586Z,23.30
2022-10-13T21:36:45.444Z,23.30
2022-10-13T21:39:14.753Z,23.30
2022-10-13T21:41:44.035Z,23.30
2022-10-13T21:44:16.225Z,23.40
2022-10-13T21:46:46.846Z,23.30
2022-10-13T21:49:16.066Z,23.30
2022-10-13T21:51:45.251Z,23.30
2022-10-13T21:54:16.562Z,23.30
2022-10-13T21:56:46.139Z,23.30
2022-10-13T21:59:18.139Z,23.30
2022-10-13T22:01:47.375Z,23.30
2022-10-13T22:04:17.445Z,23.30
2022-10-13T22:06:46.967Z,23.30
2022-10-13T22:09:16.441Z,23.30
2022-10-13T22:11:46.088Z,23.30
2022-10-13T22:14:15.420Z,23.20
2022-10-13T22:16:48.531Z,23.20
2022-10-13T22:19:19.019Z,23.10
2022-10-13T22:21:50.793Z,23.10
2022-10-13T22:24:22.195Z,23.10
2022-10-13T22:26:51.842Z,23.10
2022-10-13T22:29:23.038Z,23.10
2022-10-13T22:31:56.344Z,23.10
2022-10-13T22:34:26.038Z,23.20
2022-10-13T22:36:56.080Z,23.20
2022-10-13T22:39:25.233Z,23.10
2022-10-13T22:41:54.587Z,23.10
2022-10-13T22:44:23.720Z,23.00
2022-10-13T22:46:52.862Z,23.00
2022-10-13T22:49:22.125Z,23.00
2022-10-13T22:51:51.307Z,23.00
2022-10-13T22:54:20.487Z,23.00
2022-10-13T22:56:50.002Z,23.00
2022-10-13T22:59:19.419Z,23.00
2022-10-13T23:01:48.696Z,23.00
2022-10-13T23:04:19.957Z,23.00
2022-10-13T23:06:49.282Z,23.00
2022-10-13T23:09:18.376Z,23.00
2022-10-13T23:11:47.588Z,23.00
2022-10-13T23:14:16.855Z,23.00
2022-10-13T23:16:46.008Z,23.00
2022-10-13T23:19:15.205Z,23.00
2022-10-13T23:21:44.545Z,23.00
2022-10-13T23:24:13.860Z,23.00
2022-10-13T23:26:43.075Z,23.00
2022-10-13T23:29:12.593Z,23.00
2022-10-13T23:31:41.874Z,23.00
2022-10-13T23:34:12.174Z,23.00
2022-10-13T23:36:41.415Z,23.00
2022-10-13T23:39:12.385Z,22.90
2022-10-13T23:41:41.746Z,23.00
2022-10-13T23:44:10.948Z,23.00
2022-10-13T23:46:40.217Z,23.00
2022-10-13T23:49:10.320Z,23.00
2022-10-13T23:51:39.517Z,23.00
2022-10-13T23:54:08.649Z,23.00
2022-10-13T23:56:37.898Z,23.10
2022-10-13T23:59:07.427Z,23.10
